Seaview, Virginia
Current Conditions -  °F | °C
As of 10:58 PM on Saturday 27 Dec 2014 (Local Time) from KLFI Reporting Station
Overcast Overcast  
Wind Chill: 50°   Ceiling: 15000
Heat Index: 50°   Visibility: 10mi
Dew Point: 40°   Wind: 7mph
Humidity: 68%   Direction: 220°SW
Pressure: 30.18"   Gusts: NA
Location:  37.26°N, 75.95°W
Report Text: KLFI 280358Z AUTO 22006KT 10SM OVC150 10/04 A3018 RMK AO2 SLP227 T01000043 $
Loading
Personal Weather Stations






























Interactive Weather Map New forecast layout! Learn more

10-Day Weather Forecast

Advertisements
Track Severe Weather on mobile